AUA683 LOWW-EFHK
Flight info
| Callsign | AUA683 |
|---|---|
| Flight time | 2h 10m |
| Altitude | 35000 |
| Route | LEDVA DCT KATQA DCT BAVOK DCT UVROB DCT ASBIM DCT BOKSU DCT INBOV DCT GUNTA DCT KEMET Q11 INTOR |
| Aircraft | MD82/M-SDFGIJ1RWY/S |
Departure
| Time | 2026-04-25 04:05 |
|---|---|
| Airport | Vienna International Airport (LOWW) |
Arrival
| Time | 2026-04-25 06:15 |
|---|---|
| Airport | Helsinki Vantaa Airport (EFHK) |
| Time | Latitude | Longitude | Altitude | Speed | Heading |
|---|---|---|---|---|---|
| 2026-04-25 03:34 | 48.11755 | 16.56621 | 621 ft | 0 kts | 26° |
| 2026-04-25 03:51 | 48.11752 | 16.56618 | 610 ft | 3 kts | 26° |
| 2026-04-25 03:51 | 48.11733 | 16.56605 | 626 ft | 3 kts | 25° |
| 2026-04-25 03:52 | 48.11714 | 16.56592 | 624 ft | 3 kts | 25° |
| 2026-04-25 03:52 | 48.11699 | 16.56572 | 623 ft | 3 kts | 68° |
| 2026-04-25 03:52 | 48.11697 | 16.56543 | 619 ft | 3 kts | 111° |
| 2026-04-25 03:52 | 48.11696 | 16.56543 | 620 ft | 0 kts | 115° |
| 2026-04-25 03:56 | 48.11687 | 16.56572 | 623 ft | 7 kts | 115° |
| 2026-04-25 03:56 | 48.11670 | 16.56625 | 619 ft | 0 kts | 115° |
| 2026-04-25 03:57 | 48.11662 | 16.56654 | 618 ft | 5 kts | 112° |
| 2026-04-25 03:58 | 48.11639 | 16.56733 | 613 ft | 8 kts | 114° |
| 2026-04-25 03:58 | 48.11627 | 16.56773 | 616 ft | 4 kts | 115° |
| 2026-04-25 03:58 | 48.11613 | 16.56815 | 620 ft | 5 kts | 115° |
| 2026-04-25 03:58 | 48.11594 | 16.56871 | 615 ft | 7 kts | 122° |
| 2026-04-25 03:59 | 48.11553 | 16.56916 | 618 ft | 8 kts | 170° |
| 2026-04-25 03:59 | 48.11497 | 16.56896 | 615 ft | 9 kts | 202° |
| 2026-04-25 03:59 | 48.11436 | 16.56849 | 618 ft | 11 kts | 208° |
| 2026-04-25 03:59 | 48.11366 | 16.56823 | 626 ft | 11 kts | 155° |
| 2026-04-25 04:00 | 48.11325 | 16.56917 | 621 ft | 12 kts | 115° |
| 2026-04-25 04:00 | 48.11290 | 16.57029 | 616 ft | 10 kts | 116° |
| 2026-04-25 04:00 | 48.11256 | 16.57133 | 621 ft | 12 kts | 116° |
| 2026-04-25 04:00 | 48.11221 | 16.57242 | 613 ft | 11 kts | 115° |
| 2026-04-25 04:01 | 48.11190 | 16.57340 | 622 ft | 9 kts | 116° |
| 2026-04-25 04:01 | 48.11159 | 16.57435 | 618 ft | 11 kts | 116° |
| 2026-04-25 04:01 | 48.11124 | 16.57541 | 618 ft | 12 kts | 116° |
| 2026-04-25 04:01 | 48.11088 | 16.57633 | 612 ft | 10 kts | 143° |
| 2026-04-25 04:02 | 48.11020 | 16.57632 | 615 ft | 11 kts | 201° |
| 2026-04-25 04:02 | 48.10947 | 16.57582 | 622 ft | 12 kts | 207° |
| 2026-04-25 04:02 | 48.10929 | 16.57488 | 618 ft | 9 kts | 290° |
| 2026-04-25 04:02 | 48.10938 | 16.57459 | 613 ft | 0 kts | 302° |
| 2026-04-25 04:04 | 48.10939 | 16.57459 | 613 ft | 0 kts | 302° |
| 2026-04-25 04:04 | 48.10948 | 16.57436 | 620 ft | 14 kts | 299° |
| 2026-04-25 04:04 | 48.11091 | 16.56990 | 618 ft | 85 kts | 296° |
| 2026-04-25 04:05 | 48.11451 | 16.55885 | 614 ft | 149 kts | 295° |
| 2026-04-25 04:05 | 48.11921 | 16.54315 | 993 ft | 170 kts | 290° |
| 2026-04-25 04:05 | 48.12157 | 16.52567 | 1902 ft | 173 kts | 270° |
| 2026-04-25 04:05 | 48.11823 | 16.50750 | 2617 ft | 194 kts | 252° |
| 2026-04-25 04:06 | 48.11205 | 16.49145 | 3113 ft | 160 kts | 246° |
| 2026-04-25 04:06 | 48.10634 | 16.47715 | 2850 ft | 167 kts | 249° |
| 2026-04-25 04:06 | 48.10122 | 16.46134 | 2707 ft | 166 kts | 252° |
| 2026-04-25 04:06 | 48.09657 | 16.44608 | 2559 ft | 169 kts | 252° |
| 2026-04-25 04:07 | 48.09158 | 16.43006 | 2459 ft | 170 kts | 252° |
| 2026-04-25 04:07 | 48.08689 | 16.41335 | 2229 ft | 180 kts | 256° |
| 2026-04-25 04:07 | 48.08304 | 16.39617 | 2356 ft | 169 kts | 260° |
| 2026-04-25 04:07 | 48.08057 | 16.37922 | 2263 ft | 168 kts | 268° |
| 2026-04-25 04:08 | 48.08122 | 16.36082 | 2257 ft | 201 kts | 287° |
| 2026-04-25 04:08 | 48.08727 | 16.33977 | 3119 ft | 237 kts | 300° |
| 2026-04-25 04:08 | 48.09541 | 16.32035 | 4920 ft | 203 kts | 307° |
| 2026-04-25 04:08 | 48.10475 | 16.30398 | 5912 ft | 216 kts | 313° |
| 2026-04-25 04:09 | 48.11591 | 16.28903 | 6938 ft | 213 kts | 319° |
| 2026-04-25 04:09 | 48.12773 | 16.27571 | 7918 ft | 212 kts | 320° |
| 2026-04-25 04:09 | 48.13716 | 16.25979 | 9093 ft | 201 kts | 299° |
| 2026-04-25 04:09 | 48.14150 | 16.24000 | 10056 ft | 208 kts | 285° |
| 2026-04-25 04:10 | 48.14575 | 16.21795 | 10274 ft | 235 kts | 300° |
| 2026-04-25 04:10 | 48.15652 | 16.19807 | 10443 ft | 261 kts | 326° |
| 2026-04-25 04:10 | 48.17292 | 16.18395 | 10715 ft | 284 kts | 332° |
| 2026-04-25 04:10 | 48.19123 | 16.16986 | 10974 ft | 307 kts | 333° |
| 2026-04-25 04:11 | 48.23363 | 16.14990 | 12002 ft | 335 kts | 2° |
| 2026-04-25 04:11 | 48.25617 | 16.15955 | 12830 ft | 345 kts | 25° |
| 2026-04-25 04:11 | 48.27565 | 16.18131 | 13578 ft | 354 kts | 38° |
| 2026-04-25 04:12 | 48.29390 | 16.20667 | 14249 ft | 361 kts | 39° |
| 2026-04-25 04:12 | 48.31219 | 16.23271 | 14933 ft | 364 kts | 40° |
| 2026-04-25 04:12 | 48.33064 | 16.25906 | 15589 ft | 368 kts | 40° |
| 2026-04-25 04:12 | 48.34943 | 16.28556 | 16212 ft | 372 kts | 39° |
| 2026-04-25 04:13 | 48.36864 | 16.31199 | 16845 ft | 377 kts | 38° |
| 2026-04-25 04:13 | 48.38827 | 16.33840 | 17464 ft | 381 kts | 37° |
| 2026-04-25 04:13 | 48.40826 | 16.36482 | 18066 ft | 385 kts | 37° |
| 2026-04-25 04:13 | 48.42856 | 16.39139 | 18621 ft | 389 kts | 37° |
| 2026-04-25 04:14 | 48.44912 | 16.41820 | 19122 ft | 393 kts | 37° |
| 2026-04-25 04:14 | 48.46983 | 16.44524 | 19677 ft | 395 kts | 37° |
| 2026-04-25 04:14 | 48.49066 | 16.47253 | 20223 ft | 398 kts | 37° |
| 2026-04-25 04:14 | 48.51167 | 16.50012 | 20730 ft | 402 kts | 37° |
| 2026-04-25 04:15 | 48.53257 | 16.52768 | 21224 ft | 406 kts | 37° |
| 2026-04-25 04:15 | 48.55390 | 16.55588 | 21782 ft | 409 kts | 37° |
| 2026-04-25 04:15 | 48.57531 | 16.58443 | 22279 ft | 413 kts | 37° |
| 2026-04-25 04:15 | 48.59689 | 16.61330 | 22780 ft | 416 kts | 37° |
| 2026-04-25 04:16 | 48.61870 | 16.64245 | 23234 ft | 420 kts | 37° |
| 2026-04-25 04:16 | 48.64073 | 16.67182 | 23703 ft | 423 kts | 37° |
| 2026-04-25 04:16 | 48.66285 | 16.70133 | 24132 ft | 425 kts | 37° |
| 2026-04-25 04:16 | 48.68513 | 16.73104 | 24533 ft | 428 kts | 37° |
| 2026-04-25 04:17 | 48.70755 | 16.76095 | 24942 ft | 431 kts | 37° |
| 2026-04-25 04:17 | 48.73007 | 16.79118 | 25361 ft | 434 kts | 38° |
| 2026-04-25 04:17 | 48.75186 | 16.82311 | 25793 ft | 437 kts | 40° |
| 2026-04-25 04:17 | 48.77312 | 16.85633 | 26182 ft | 441 kts | 41° |
| 2026-04-25 04:18 | 48.79438 | 16.89011 | 26538 ft | 444 kts | 41° |
| 2026-04-25 04:18 | 48.81576 | 16.92407 | 26946 ft | 446 kts | 41° |
| 2026-04-25 04:18 | 48.83732 | 16.95807 | 27327 ft | 448 kts | 41° |
| 2026-04-25 04:18 | 48.85911 | 16.99214 | 27701 ft | 451 kts | 40° |
| 2026-04-25 04:19 | 48.88109 | 17.02630 | 28061 ft | 454 kts | 40° |
| 2026-04-25 04:19 | 48.90326 | 17.06062 | 28413 ft | 456 kts | 40° |
| 2026-04-25 04:19 | 48.92555 | 17.09515 | 28826 ft | 458 kts | 40° |
| 2026-04-25 04:19 | 48.94795 | 17.12995 | 29141 ft | 462 kts | 40° |
| 2026-04-25 04:20 | 48.97045 | 17.16494 | 29604 ft | 462 kts | 40° |
| 2026-04-25 04:20 | 48.99281 | 17.19978 | 30186 ft | 459 kts | 40° |
| 2026-04-25 04:20 | 49.01483 | 17.23388 | 30670 ft | 454 kts | 37° |
| 2026-04-25 04:20 | 49.03940 | 17.26320 | 31077 ft | 445 kts | 27° |
| 2026-04-25 04:21 | 49.06548 | 17.28831 | 31457 ft | 443 kts | 25° |
| 2026-04-25 04:21 | 49.09192 | 17.31246 | 31832 ft | 442 kts | 24° |
| 2026-04-25 04:21 | 49.11833 | 17.33647 | 32254 ft | 441 kts | 24° |
| 2026-04-25 04:21 | 49.14456 | 17.36059 | 32661 ft | 440 kts | 24° |
| 2026-04-25 04:22 | 49.17079 | 17.38498 | 32875 ft | 444 kts | 24° |
| 2026-04-25 04:22 | 49.22349 | 17.43487 | 33021 ft | 445 kts | 25° |
| 2026-04-25 04:23 | 49.27560 | 17.48504 | 33039 ft | 440 kts | 25° |
| 2026-04-25 04:23 | 49.32731 | 17.53490 | 33067 ft | 439 kts | 25° |
| 2026-04-25 04:24 | 49.37900 | 17.58466 | 33054 ft | 438 kts | 25° |
| 2026-04-25 04:24 | 49.42190 | 17.62608 | 33053 ft | 439 kts | 25° |
| 2026-04-25 04:25 | 49.48201 | 17.68439 | 33052 ft | 439 kts | 25° |
| 2026-04-25 04:25 | 49.52535 | 17.72645 | 33054 ft | 440 kts | 25° |
| 2026-04-25 04:26 | 49.57710 | 17.77669 | 33043 ft | 439 kts | 25° |
| 2026-04-25 04:26 | 49.62863 | 17.82685 | 33038 ft | 437 kts | 25° |
| 2026-04-25 04:27 | 49.67972 | 17.87667 | 33043 ft | 437 kts | 25° |
| 2026-04-25 04:27 | 49.73116 | 17.92693 | 33043 ft | 438 kts | 25° |
| 2026-04-25 04:28 | 49.78265 | 17.97757 | 33040 ft | 439 kts | 25° |
| 2026-04-25 04:28 | 49.83419 | 18.02841 | 33042 ft | 439 kts | 25° |
| 2026-04-25 04:29 | 49.88584 | 18.07933 | 33038 ft | 440 kts | 25° |
| 2026-04-25 04:29 | 49.93713 | 18.12990 | 33040 ft | 439 kts | 25° |
| 2026-04-25 04:30 | 49.98848 | 18.18068 | 33027 ft | 436 kts | 25° |
| 2026-04-25 04:30 | 50.03934 | 18.23235 | 33025 ft | 438 kts | 27° |
| 2026-04-25 04:31 | 50.08987 | 18.28556 | 33024 ft | 439 kts | 27° |
| 2026-04-25 04:31 | 50.14064 | 18.33867 | 33037 ft | 440 kts | 26° |
| 2026-04-25 04:32 | 50.19130 | 18.39122 | 33021 ft | 440 kts | 26° |
| 2026-04-25 04:32 | 50.24212 | 18.44393 | 33014 ft | 438 kts | 26° |
| 2026-04-25 04:33 | 50.29281 | 18.49667 | 33015 ft | 437 kts | 26° |
| 2026-04-25 04:33 | 50.34351 | 18.54961 | 33027 ft | 438 kts | 26° |
| 2026-04-25 04:34 | 50.39422 | 18.60293 | 33015 ft | 439 kts | 26° |
| 2026-04-25 04:34 | 50.44489 | 18.65644 | 33009 ft | 439 kts | 26° |
| 2026-04-25 04:35 | 50.49562 | 18.70998 | 33007 ft | 439 kts | 26° |
| 2026-04-25 04:35 | 50.54634 | 18.76354 | 33029 ft | 440 kts | 26° |
| 2026-04-25 04:36 | 50.59715 | 18.81732 | 33015 ft | 440 kts | 26° |
| 2026-04-25 04:36 | 50.64800 | 18.87124 | 33002 ft | 441 kts | 26° |
| 2026-04-25 04:37 | 50.69885 | 18.92531 | 32998 ft | 441 kts | 26° |
| 2026-04-25 04:37 | 50.74959 | 18.97975 | 33008 ft | 442 kts | 26° |
| 2026-04-25 04:38 | 50.80029 | 19.03435 | 32994 ft | 440 kts | 26° |
| 2026-04-25 04:38 | 50.85082 | 19.08861 | 32988 ft | 439 kts | 26° |
| 2026-04-25 04:39 | 50.90135 | 19.14287 | 32990 ft | 439 kts | 26° |
| 2026-04-25 04:39 | 50.95189 | 19.19733 | 33010 ft | 440 kts | 26° |
| 2026-04-25 04:40 | 51.00231 | 19.25194 | 32984 ft | 438 kts | 26° |
| 2026-04-25 04:40 | 51.05254 | 19.30633 | 32978 ft | 437 kts | 26° |
| 2026-04-25 04:41 | 51.10233 | 19.36068 | 32974 ft | 437 kts | 26° |
| 2026-04-25 04:41 | 51.15255 | 19.41563 | 32992 ft | 439 kts | 26° |
| 2026-04-25 04:42 | 51.20294 | 19.47072 | 32973 ft | 440 kts | 26° |
| 2026-04-25 04:42 | 51.25341 | 19.52602 | 32963 ft | 439 kts | 26° |
| 2026-04-25 04:43 | 51.30373 | 19.58134 | 32957 ft | 438 kts | 26° |
| 2026-04-25 04:43 | 51.35385 | 19.63650 | 32981 ft | 437 kts | 26° |
| 2026-04-25 04:44 | 51.40413 | 19.69176 | 32955 ft | 439 kts | 27° |
| 2026-04-25 04:44 | 51.45428 | 19.74778 | 32953 ft | 440 kts | 27° |
| 2026-04-25 04:45 | 51.50461 | 19.80403 | 32938 ft | 441 kts | 27° |
| 2026-04-25 04:45 | 51.55468 | 19.85983 | 32945 ft | 441 kts | 27° |
| 2026-04-25 04:46 | 51.60479 | 19.91543 | 32932 ft | 439 kts | 28° |
| 2026-04-25 04:46 | 51.65482 | 19.97155 | 32924 ft | 438 kts | 28° |
| 2026-04-25 04:47 | 51.70477 | 20.02771 | 32920 ft | 438 kts | 28° |
| 2026-04-25 04:47 | 51.75482 | 20.08413 | 32918 ft | 439 kts | 28° |
| 2026-04-25 04:48 | 51.80484 | 20.14097 | 32915 ft | 440 kts | 28° |
| 2026-04-25 04:48 | 51.85499 | 20.19788 | 32913 ft | 441 kts | 28° |
| 2026-04-25 04:49 | 51.90521 | 20.25488 | 32909 ft | 440 kts | 28° |
| 2026-04-25 04:49 | 51.95526 | 20.31181 | 32909 ft | 439 kts | 28° |
| 2026-04-25 04:50 | 52.00526 | 20.36867 | 32915 ft | 439 kts | 29° |
| 2026-04-25 04:50 | 52.05535 | 20.42592 | 32902 ft | 441 kts | 30° |
| 2026-04-25 04:51 | 52.10541 | 20.48363 | 32892 ft | 442 kts | 30° |
| 2026-04-25 04:51 | 52.15555 | 20.54175 | 32885 ft | 442 kts | 30° |
| 2026-04-25 04:52 | 52.20575 | 20.59985 | 32901 ft | 442 kts | 30° |
| 2026-04-25 04:52 | 52.25574 | 20.65774 | 32880 ft | 439 kts | 29° |
| 2026-04-25 04:53 | 52.30551 | 20.71538 | 32885 ft | 438 kts | 29° |
| 2026-04-25 04:53 | 52.35493 | 20.77286 | 32882 ft | 438 kts | 29° |
| 2026-04-25 04:54 | 52.40462 | 20.83074 | 32900 ft | 439 kts | 29° |
| 2026-04-25 04:54 | 52.45448 | 20.88860 | 32883 ft | 438 kts | 28° |
| 2026-04-25 04:55 | 52.50413 | 20.94611 | 32877 ft | 436 kts | 28° |
| 2026-04-25 04:55 | 52.55364 | 21.00391 | 32869 ft | 437 kts | 28° |
| 2026-04-25 04:56 | 52.60271 | 21.06326 | 32863 ft | 439 kts | 31° |
| 2026-04-25 04:56 | 52.65131 | 21.12425 | 32854 ft | 438 kts | 30° |
| 2026-04-25 04:57 | 52.70025 | 21.18379 | 32849 ft | 436 kts | 28° |
| 2026-04-25 04:57 | 52.74932 | 21.24248 | 32842 ft | 435 kts | 28° |
| 2026-04-25 04:58 | 52.79806 | 21.30084 | 32844 ft | 436 kts | 28° |
| 2026-04-25 04:58 | 52.84716 | 21.36010 | 32858 ft | 437 kts | 28° |
| 2026-04-25 04:59 | 52.89605 | 21.41941 | 32845 ft | 435 kts | 28° |
| 2026-04-25 04:59 | 52.94470 | 21.47874 | 32841 ft | 434 kts | 28° |
| 2026-04-25 05:00 | 52.99331 | 21.53841 | 32832 ft | 435 kts | 28° |
| 2026-04-25 05:00 | 53.04200 | 21.59808 | 32862 ft | 436 kts | 28° |
| 2026-04-25 05:01 | 53.09078 | 21.65797 | 32835 ft | 435 kts | 28° |
| 2026-04-25 05:01 | 53.13934 | 21.71756 | 32835 ft | 433 kts | 28° |
| 2026-04-25 05:02 | 53.18820 | 21.77582 | 32825 ft | 431 kts | 26° |
| 2026-04-25 05:02 | 53.23783 | 21.83063 | 32836 ft | 430 kts | 25° |
| 2026-04-25 05:03 | 53.28796 | 21.88569 | 32835 ft | 432 kts | 25° |
| 2026-04-25 05:03 | 53.33826 | 21.94153 | 32827 ft | 430 kts | 25° |
| 2026-04-25 05:04 | 53.38762 | 21.99685 | 32825 ft | 429 kts | 25° |
| 2026-04-25 05:04 | 53.43725 | 22.05270 | 32826 ft | 430 kts | 25° |
| 2026-04-25 05:05 | 53.48698 | 22.10880 | 32839 ft | 431 kts | 25° |
| 2026-04-25 05:05 | 53.53667 | 22.16509 | 32823 ft | 431 kts | 25° |
| 2026-04-25 05:06 | 53.58626 | 22.22171 | 32822 ft | 430 kts | 25° |
| 2026-04-25 05:06 | 53.63575 | 22.27816 | 32819 ft | 429 kts | 25° |
| 2026-04-25 05:07 | 53.68528 | 22.33462 | 32855 ft | 430 kts | 25° |
| 2026-04-25 05:07 | 53.73489 | 22.39130 | 32818 ft | 431 kts | 25° |
| 2026-04-25 05:08 | 53.78455 | 22.44821 | 32811 ft | 431 kts | 25° |
| 2026-04-25 05:08 | 53.83389 | 22.50492 | 32809 ft | 431 kts | 25° |
| 2026-04-25 05:09 | 53.88350 | 22.56227 | 32812 ft | 432 kts | 25° |
| 2026-04-25 05:09 | 53.93295 | 22.61992 | 32815 ft | 429 kts | 25° |
| 2026-04-25 05:10 | 53.98200 | 22.67708 | 32807 ft | 427 kts | 25° |
| 2026-04-25 05:10 | 54.03104 | 22.73410 | 32811 ft | 427 kts | 25° |
| 2026-04-25 05:11 | 54.07223 | 22.78207 | 32817 ft | 428 kts | 25° |
| 2026-04-25 05:11 | 54.12945 | 22.84894 | 32842 ft | 430 kts | 25° |
| 2026-04-25 05:12 | 54.19526 | 22.92620 | 32811 ft | 432 kts | 25° |
| 2026-04-25 05:12 | 54.24476 | 22.98425 | 32808 ft | 431 kts | 25° |
| 2026-04-25 05:13 | 54.30231 | 23.05052 | 32794 ft | 421 kts | 17° |
| 2026-04-25 05:13 | 54.32033 | 23.06309 | 32815 ft | 408 kts | 7° |
| 2026-04-25 05:13 | 54.34767 | 23.07400 | 32860 ft | 402 kts | 2° |
| 2026-04-25 05:14 | 54.40291 | 23.09003 | 32808 ft | 403 kts | 1° |
| 2026-04-25 05:15 | 54.48610 | 23.11297 | 32798 ft | 404 kts | 1° |
| 2026-04-25 05:15 | 54.54119 | 23.12948 | 32785 ft | 404 kts | 1° |
| 2026-04-25 05:16 | 54.59674 | 23.14660 | 32788 ft | 406 kts | 1° |
| 2026-04-25 05:16 | 54.65255 | 23.16376 | 32796 ft | 409 kts | 1° |
| 2026-04-25 05:17 | 54.70868 | 23.18107 | 32789 ft | 410 kts | 1° |
| 2026-04-25 05:17 | 54.76474 | 23.19849 | 32786 ft | 408 kts | 2° |
| 2026-04-25 05:18 | 54.82056 | 23.21588 | 32779 ft | 407 kts | 1° |
| 2026-04-25 05:18 | 54.87641 | 23.23317 | 32807 ft | 408 kts | 2° |
| 2026-04-25 05:19 | 54.93211 | 23.25034 | 32788 ft | 410 kts | 2° |
| 2026-04-25 05:19 | 54.98840 | 23.26789 | 32783 ft | 411 kts | 2° |
| 2026-04-25 05:20 | 55.04480 | 23.28554 | 32776 ft | 412 kts | 2° |
| 2026-04-25 05:20 | 55.10104 | 23.30321 | 32776 ft | 410 kts | 2° |
| 2026-04-25 05:21 | 55.15714 | 23.32076 | 32792 ft | 410 kts | 2° |
| 2026-04-25 05:21 | 55.21355 | 23.33837 | 32777 ft | 412 kts | 2° |
| 2026-04-25 05:22 | 55.27012 | 23.35626 | 32767 ft | 414 kts | 2° |
| 2026-04-25 05:22 | 55.32684 | 23.37429 | 32767 ft | 414 kts | 2° |
| 2026-04-25 05:23 | 55.38346 | 23.39234 | 32765 ft | 413 kts | 2° |
| 2026-04-25 05:23 | 55.43998 | 23.41033 | 32774 ft | 413 kts | 3° |
| 2026-04-25 05:24 | 55.49655 | 23.43051 | 32756 ft | 416 kts | 4° |
| 2026-04-25 05:24 | 55.55302 | 23.45176 | 32754 ft | 420 kts | 4° |
| 2026-04-25 05:25 | 55.61034 | 23.47288 | 32751 ft | 421 kts | 4° |
| 2026-04-25 05:25 | 55.66769 | 23.49376 | 32778 ft | 420 kts | 4° |
| 2026-04-25 05:26 | 55.72501 | 23.51451 | 32748 ft | 421 kts | 4° |
| 2026-04-25 05:26 | 55.78236 | 23.53552 | 32742 ft | 421 kts | 4° |
| 2026-04-25 05:27 | 55.83979 | 23.55667 | 32741 ft | 422 kts | 4° |
| 2026-04-25 05:27 | 55.89726 | 23.57797 | 32734 ft | 422 kts | 4° |
| 2026-04-25 05:28 | 55.95478 | 23.59930 | 32750 ft | 423 kts | 5° |
| 2026-04-25 05:28 | 56.01249 | 23.62070 | 32728 ft | 424 kts | 5° |
| 2026-04-25 05:29 | 56.07021 | 23.64224 | 32716 ft | 424 kts | 5° |
| 2026-04-25 05:29 | 56.12798 | 23.66383 | 32727 ft | 424 kts | 5° |
| 2026-04-25 05:30 | 56.18583 | 23.68549 | 32712 ft | 424 kts | 5° |
| 2026-04-25 05:30 | 56.24375 | 23.70716 | 32729 ft | 426 kts | 5° |
| 2026-04-25 05:31 | 56.30177 | 23.72901 | 32718 ft | 426 kts | 5° |
| 2026-04-25 05:31 | 56.35942 | 23.75076 | 32717 ft | 426 kts | 5° |
| 2026-04-25 05:32 | 56.41762 | 23.77175 | 32712 ft | 426 kts | 4° |
| 2026-04-25 05:32 | 56.47590 | 23.79086 | 32711 ft | 425 kts | 3° |
| 2026-04-25 05:33 | 56.53420 | 23.80982 | 32708 ft | 426 kts | 4° |
| 2026-04-25 05:33 | 56.59246 | 23.82913 | 32706 ft | 425 kts | 4° |
| 2026-04-25 05:34 | 56.65061 | 23.84871 | 32701 ft | 426 kts | 4° |
| 2026-04-25 05:34 | 56.70889 | 23.86833 | 32697 ft | 427 kts | 4° |
| 2026-04-25 05:35 | 56.76739 | 23.88799 | 32706 ft | 428 kts | 4° |
| 2026-04-25 05:35 | 56.82610 | 23.90795 | 32691 ft | 429 kts | 4° |
| 2026-04-25 05:36 | 56.88490 | 23.92812 | 32690 ft | 430 kts | 4° |
| 2026-04-25 05:36 | 56.94362 | 23.94820 | 32685 ft | 428 kts | 4° |
| 2026-04-25 05:37 | 57.00175 | 23.96806 | 32693 ft | 427 kts | 4° |
| 2026-04-25 05:37 | 57.06036 | 23.98806 | 32694 ft | 429 kts | 4° |
| 2026-04-25 05:38 | 57.11915 | 24.00826 | 32687 ft | 430 kts | 4° |
| 2026-04-25 05:38 | 57.17808 | 24.02862 | 32688 ft | 431 kts | 4° |
| 2026-04-25 05:39 | 57.23708 | 24.04914 | 32683 ft | 432 kts | 4° |
| 2026-04-25 05:39 | 57.29604 | 24.06977 | 32708 ft | 431 kts | 4° |
| 2026-04-25 05:40 | 57.35503 | 24.09030 | 32685 ft | 432 kts | 4° |
| 2026-04-25 05:40 | 57.41411 | 24.11093 | 32672 ft | 432 kts | 4° |
| 2026-04-25 05:41 | 57.47332 | 24.13169 | 32669 ft | 433 kts | 4° |
| 2026-04-25 05:41 | 57.53256 | 24.15253 | 32668 ft | 433 kts | 4° |
| 2026-04-25 05:42 | 57.59150 | 24.17332 | 32685 ft | 434 kts | 5° |
| 2026-04-25 05:42 | 57.65093 | 24.19445 | 32669 ft | 435 kts | 5° |
| 2026-04-25 05:43 | 57.71056 | 24.21579 | 32667 ft | 436 kts | 5° |
| 2026-04-25 05:43 | 57.77018 | 24.23708 | 32661 ft | 436 kts | 5° |
| 2026-04-25 05:44 | 57.82971 | 24.25836 | 32652 ft | 435 kts | 5° |
| 2026-04-25 05:44 | 57.88910 | 24.27963 | 32655 ft | 435 kts | 5° |
| 2026-04-25 05:45 | 57.94861 | 24.30103 | 32649 ft | 436 kts | 5° |
| 2026-04-25 05:45 | 58.00823 | 24.32258 | 32647 ft | 436 kts | 5° |
| 2026-04-25 05:46 | 58.06790 | 24.34435 | 32638 ft | 437 kts | 5° |
| 2026-04-25 05:46 | 58.12767 | 24.36622 | 32670 ft | 438 kts | 5° |
| 2026-04-25 05:47 | 58.18757 | 24.38806 | 32637 ft | 439 kts | 5° |
| 2026-04-25 05:47 | 58.24716 | 24.40987 | 32629 ft | 438 kts | 5° |
| 2026-04-25 05:48 | 58.30695 | 24.43187 | 32617 ft | 437 kts | 5° |
| 2026-04-25 05:48 | 58.36661 | 24.45386 | 32604 ft | 437 kts | 5° |
| 2026-04-25 05:49 | 58.42639 | 24.47594 | 32624 ft | 439 kts | 5° |
| 2026-04-25 05:49 | 58.48656 | 24.49782 | 32610 ft | 441 kts | 5° |
| 2026-04-25 05:50 | 58.54685 | 24.52004 | 32606 ft | 442 kts | 5° |
| 2026-04-25 05:50 | 58.60709 | 24.54270 | 32604 ft | 440 kts | 5° |
| 2026-04-25 05:51 | 58.66713 | 24.56542 | 32595 ft | 440 kts | 5° |
| 2026-04-25 05:51 | 58.72729 | 24.58816 | 32601 ft | 442 kts | 5° |
| 2026-04-25 05:52 | 58.78781 | 24.61095 | 32581 ft | 444 kts | 5° |
| 2026-04-25 05:52 | 58.84852 | 24.63299 | 32579 ft | 444 kts | 5° |
| 2026-04-25 05:53 | 58.90920 | 24.65462 | 32570 ft | 442 kts | 5° |
| 2026-04-25 05:53 | 58.96959 | 24.67645 | 32603 ft | 441 kts | 5° |
| 2026-04-25 05:54 | 59.03017 | 24.69831 | 32565 ft | 443 kts | 5° |
| 2026-04-25 05:54 | 59.12094 | 24.73122 | 32533 ft | 444 kts | 5° |
| 2026-04-25 05:55 | 59.15155 | 24.74238 | 32088 ft | 449 kts | 5° |
| 2026-04-25 05:55 | 59.18217 | 24.75359 | 31572 ft | 447 kts | 5° |
| 2026-04-25 05:55 | 59.21264 | 24.76481 | 30947 ft | 445 kts | 5° |
| 2026-04-25 05:55 | 59.24309 | 24.77605 | 30287 ft | 445 kts | 5° |
| 2026-04-25 05:56 | 59.27354 | 24.78728 | 29622 ft | 446 kts | 5° |
| 2026-04-25 05:56 | 59.30401 | 24.79852 | 28841 ft | 444 kts | 5° |
| 2026-04-25 05:56 | 59.33416 | 24.80969 | 28120 ft | 438 kts | 5° |
| 2026-04-25 05:56 | 59.36389 | 24.82075 | 27433 ft | 432 kts | 5° |
| 2026-04-25 05:57 | 59.38335 | 24.82800 | 26992 ft | 428 kts | 5° |
| 2026-04-25 05:57 | 59.42190 | 24.84559 | 26137 ft | 426 kts | 13° |
| 2026-04-25 05:57 | 59.44025 | 24.85924 | 25748 ft | 426 kts | 17° |
| 2026-04-25 05:57 | 59.47662 | 24.89004 | 24938 ft | 423 kts | 18° |
| 2026-04-25 05:58 | 59.50343 | 24.91345 | 24301 ft | 420 kts | 18° |
| 2026-04-25 05:58 | 59.52111 | 24.92884 | 23875 ft | 418 kts | 18° |
| 2026-04-25 05:58 | 59.54731 | 24.95157 | 23263 ft | 415 kts | 18° |
| 2026-04-25 05:58 | 59.58223 | 24.98139 | 22277 ft | 410 kts | 17° |
| 2026-04-25 05:59 | 59.59996 | 24.99625 | 21821 ft | 406 kts | 17° |
| 2026-04-25 05:59 | 59.62578 | 25.01773 | 21210 ft | 400 kts | 17° |
| 2026-04-25 05:59 | 59.65124 | 25.03884 | 20642 ft | 394 kts | 17° |
| 2026-04-25 05:59 | 59.67631 | 25.05965 | 20093 ft | 388 kts | 17° |
| 2026-04-25 06:00 | 59.70072 | 25.07995 | 19558 ft | 383 kts | 17° |
| 2026-04-25 06:00 | 59.72518 | 25.10036 | 19002 ft | 379 kts | 17° |
| 2026-04-25 06:00 | 59.74942 | 25.12064 | 18443 ft | 377 kts | 17° |
| 2026-04-25 06:00 | 59.77349 | 25.14083 | 17881 ft | 374 kts | 18° |
| 2026-04-25 06:01 | 59.79742 | 25.16095 | 17242 ft | 372 kts | 18° |
| 2026-04-25 06:01 | 59.82116 | 25.18100 | 16678 ft | 369 kts | 18° |
| 2026-04-25 06:01 | 59.84462 | 25.20100 | 16141 ft | 364 kts | 18° |
| 2026-04-25 06:01 | 59.86773 | 25.22081 | 15642 ft | 359 kts | 18° |
| 2026-04-25 06:02 | 59.89056 | 25.24029 | 15149 ft | 354 kts | 17° |
| 2026-04-25 06:02 | 59.91375 | 25.25171 | 14698 ft | 336 kts | 357° |
| 2026-04-25 06:02 | 59.93650 | 25.25066 | 14241 ft | 327 kts | 350° |
| 2026-04-25 06:02 | 59.95903 | 25.24711 | 13807 ft | 323 kts | 349° |
| 2026-04-25 06:03 | 59.98131 | 25.24328 | 13330 ft | 320 kts | 349° |
| 2026-04-25 06:03 | 60.00345 | 25.23925 | 12821 ft | 317 kts | 348° |
| 2026-04-25 06:03 | 60.02531 | 25.23520 | 12343 ft | 314 kts | 349° |
| 2026-04-25 06:03 | 60.04690 | 25.23136 | 11909 ft | 310 kts | 349° |
| 2026-04-25 06:04 | 60.06829 | 25.22782 | 11473 ft | 306 kts | 349° |
| 2026-04-25 06:04 | 60.08940 | 25.22456 | 11057 ft | 302 kts | 350° |
| 2026-04-25 06:04 | 60.11031 | 25.22148 | 10644 ft | 300 kts | 350° |
| 2026-04-25 06:04 | 60.13107 | 25.21854 | 10232 ft | 297 kts | 350° |
| 2026-04-25 06:05 | 60.15117 | 25.21577 | 9996 ft | 289 kts | 350° |
| 2026-04-25 06:05 | 60.17087 | 25.21314 | 9813 ft | 279 kts | 350° |
| 2026-04-25 06:05 | 60.18998 | 25.21059 | 9626 ft | 271 kts | 349° |
| 2026-04-25 06:05 | 60.20864 | 25.20802 | 9171 ft | 271 kts | 349° |
| 2026-04-25 06:06 | 60.22774 | 25.20522 | 8650 ft | 272 kts | 349° |
| 2026-04-25 06:06 | 60.24654 | 25.20253 | 8242 ft | 269 kts | 349° |
| 2026-04-25 06:06 | 60.26483 | 25.19998 | 8002 ft | 262 kts | 349° |
| 2026-04-25 06:06 | 60.28299 | 25.19739 | 7583 ft | 261 kts | 349° |
| 2026-04-25 06:07 | 60.30114 | 25.19493 | 7170 ft | 263 kts | 353° |
| 2026-04-25 06:07 | 60.31927 | 25.20248 | 6753 ft | 274 kts | 22° |
| 2026-04-25 06:07 | 60.33414 | 25.22666 | 6362 ft | 276 kts | 43° |
| 2026-04-25 06:07 | 60.34673 | 25.25563 | 5971 ft | 273 kts | 45° |
| 2026-04-25 06:08 | 60.35905 | 25.28460 | 5556 ft | 271 kts | 45° |
| 2026-04-25 06:08 | 60.37126 | 25.31359 | 5103 ft | 271 kts | 45° |
| 2026-04-25 06:08 | 60.38404 | 25.34102 | 4614 ft | 262 kts | 31° |
| 2026-04-25 06:08 | 60.39992 | 25.35465 | 4145 ft | 240 kts | 358° |
| 2026-04-25 06:09 | 60.41525 | 25.34909 | 3726 ft | 216 kts | 326° |
| 2026-04-25 06:09 | 60.42752 | 25.33316 | 3336 ft | 204 kts | 318° |
| 2026-04-25 06:09 | 60.43846 | 25.31648 | 3158 ft | 188 kts | 316° |
| 2026-04-25 06:09 | 60.44835 | 25.30002 | 3058 ft | 183 kts | 312° |
| 2026-04-25 06:10 | 60.45496 | 25.27948 | 3022 ft | 171 kts | 274° |
| 2026-04-25 06:10 | 60.45213 | 25.25728 | 3024 ft | 167 kts | 236° |
| 2026-04-25 06:10 | 60.44522 | 25.23831 | 3006 ft | 167 kts | 234° |
| 2026-04-25 06:10 | 60.43837 | 25.21934 | 2983 ft | 168 kts | 235° |
| 2026-04-25 06:11 | 60.43104 | 25.20094 | 2974 ft | 168 kts | 231° |
| 2026-04-25 06:11 | 60.42338 | 25.18380 | 2967 ft | 160 kts | 231° |
| 2026-04-25 06:11 | 60.41595 | 25.16734 | 2772 ft | 152 kts | 230° |
| 2026-04-25 06:11 | 60.40904 | 25.15201 | 2539 ft | 147 kts | 230° |
| 2026-04-25 06:12 | 60.40213 | 25.13676 | 2276 ft | 145 kts | 231° |
| 2026-04-25 06:12 | 60.39544 | 25.12196 | 2066 ft | 141 kts | 230° |
| 2026-04-25 06:12 | 60.38927 | 25.10845 | 1867 ft | 120 kts | 230° |
| 2026-04-25 06:12 | 60.38389 | 25.09653 | 1733 ft | 112 kts | 231° |
| 2026-04-25 06:13 | 60.37867 | 25.08491 | 1643 ft | 111 kts | 231° |
| 2026-04-25 06:13 | 60.37349 | 25.07342 | 1515 ft | 111 kts | 230° |
| 2026-04-25 06:13 | 60.36828 | 25.06188 | 1347 ft | 112 kts | 230° |
| 2026-04-25 06:14 | 60.35786 | 25.03880 | 965 ft | 111 kts | 228° |
| 2026-04-25 06:14 | 60.35259 | 25.02717 | 819 ft | 116 kts | 228° |
| 2026-04-25 06:14 | 60.34714 | 25.01518 | 685 ft | 117 kts | 227° |
| 2026-04-25 06:14 | 60.34150 | 25.00272 | 564 ft | 119 kts | 227° |
| 2026-04-25 06:15 | 60.33596 | 24.99037 | 355 ft | 118 kts | 226° |
| 2026-04-25 06:15 | 60.33050 | 24.97845 | 206 ft | 112 kts | 226° |
| 2026-04-25 06:15 | 60.32596 | 24.96862 | 171 ft | 57 kts | 226° |
| 2026-04-25 06:15 | 60.32488 | 24.96666 | 168 ft | 9 kts | 191° |
| 2026-04-25 06:16 | 60.32421 | 24.96719 | 168 ft | 3 kts | 150° |
| 2026-04-25 06:16 | 60.32371 | 24.96777 | 168 ft | 7 kts | 151° |
| 2026-04-25 06:16 | 60.32298 | 24.96772 | 169 ft | 4 kts | 232° |
| 2026-04-25 06:16 | 60.32239 | 24.96750 | 169 ft | 8 kts | 160° |
| 2026-04-25 06:17 | 60.32202 | 24.96784 | 169 ft | 0 kts | 151° |
| 2026-04-25 06:17 | 60.32195 | 24.96792 | 170 ft | 7 kts | 151° |
| 2026-04-25 06:17 | 60.32181 | 24.96807 | 170 ft | 1 kts | 150° |
| 2026-04-25 06:18 | 60.32159 | 24.96833 | 170 ft | 2 kts | 149° |
| 2026-04-25 06:18 | 60.32143 | 24.96852 | 171 ft | 6 kts | 150° |
| 2026-04-25 06:18 | 60.32092 | 24.96841 | 171 ft | 6 kts | 217° |
| 2026-04-25 06:18 | 60.32068 | 24.96794 | 171 ft | 0 kts | 226° |
| 2026-04-25 06:19 | 60.32064 | 24.96786 | 170 ft | 0 kts | 228° |
| 2026-04-25 06:20 | 60.32059 | 24.96774 | 170 ft | 4 kts | 229° |
| 2026-04-25 06:20 | 60.32028 | 24.96701 | 170 ft | 10 kts | 227° |
| 2026-04-25 06:20 | 60.31989 | 24.96615 | 169 ft | 9 kts | 227° |
| 2026-04-25 06:21 | 60.31950 | 24.96528 | 168 ft | 6 kts | 227° |
| 2026-04-25 06:21 | 60.31916 | 24.96489 | 168 ft | 7 kts | 188° |
| 2026-04-25 06:21 | 60.31887 | 24.96507 | 168 ft | 3 kts | 146° |
| 2026-04-25 06:21 | 60.31880 | 24.96518 | 169 ft | 0 kts | 140° |